Time;durP1;ratioP1;P1;durP2;ratioP2;P2;SDS_P1;SDS_P2;PMS_P1;PMS_P2;Temp;Humidity;BMP_temperature;BMP_pressure;BME280_temperature;BME280_humidity;BME280_pressure;Samples;Min_cycle;Max_cycle;Signal;HPM_P1;HPM_P2
2022/05/21 00:02:02;;;;;;;0.00;0.00;;;10.50;99.90;;;;;;4887912;29;20397;-70
2022/05/21 00:04:28;;;;;;;0.00;0.00;;;10.60;99.90;;;;;;4870583;29;20097;-71
2022/05/21 00:06:55;;;;;;;0.00;0.00;;;10.60;99.90;;;;;;4887408;29;20052;-72
2022/05/21 00:09:20;;;;;;;0.00;0.00;;;10.60;99.90;;;;;;4887802;29;20059;-71
2022/05/21 00:11:46;;;;;;;0.00;0.00;;;10.50;99.90;;;;;;4887541;29;20041;-70
2022/05/21 00:14:12;;;;;;;0.00;0.00;;;10.50;99.90;;;;;;4887335;29;20063;-71
2022/05/21 00:16:38;;;;;;;0.00;0.00;;;10.50;99.90;;;;;;4887589;29;20412;-71
2022/05/21 00:19:04;;;;;;;0.00;0.00;;;10.50;99.90;;;;;;4887802;29;20513;-71
2022/05/21 00:21:30;;;;;;;0.00;0.00;;;10.50;99.90;;;;;;4886840;29;20049;-72
2022/05/21 00:23:56;;;;;;;0.00;0.00;;;10.50;99.90;;;;;;4886918;29;20047;-72
2022/05/21 00:26:23;;;;;;;0.13;0.10;;;10.50;99.90;;;;;;4870461;29;20057;-71
2022/05/21 00:28:50;;;;;;;0.00;0.00;;;10.70;99.90;;;;;;4870925;29;20063;-71
2022/05/21 00:31:17;;;;;;;0.10;0.05;;;10.40;99.90;;;;;;4887250;29;20064;-72
2022/05/21 00:33:44;;;;;;;0.00;0.00;;;10.40;99.90;;;;;;4887865;29;20068;-71
2022/05/21 00:36:10;;;;;;;0.00;0.00;;;10.40;99.90;;;;;;4886792;29;20063;-71
2022/05/21 00:38:38;;;;;;;0.00;0.00;;;10.60;99.90;;;;;;4887075;29;20053;-71
2022/05/21 00:41:05;;;;;;;0.03;0.03;;;10.40;99.90;;;;;;4886996;29;20378;-71
2022/05/21 00:43:48;;;;;;;0.00;0.00;;;10.40;99.90;;;;;;4887035;29;20080;-71
2022/05/21 00:46:21;;;;;;;0.00;0.00;;;10.40;99.90;;;;;;4896179;29;20358;-72
2022/05/21 00:49:13;;;;;;;0.00;0.00;;;10.40;99.90;;;;;;4886839;29;20120;-71
2022/05/21 00:52:14;;;;;;;0.00;0.00;;;10.50;99.90;;;;;;4873310;29;20071;-71
2022/05/21 00:54:49;;;;;;;0.00;0.00;;;10.40;99.90;;;;;;4881282;29;20065;-72
2022/05/21 00:57:19;;;;;;;0.00;0.00;;;10.40;99.90;;;;;;4887407;29;20484;-72
2022/05/21 00:59:48;;;;;;;0.00;0.00;;;10.60;99.90;;;;;;4887430;29;20090;-71
2022/05/21 01:02:17;;;;;;;0.08;0.08;;;10.40;99.90;;;;;;4886748;29;20123;-71
2022/05/21 01:04:46;;;;;;;0.00;0.00;;;10.50;99.90;;;;;;4886600;29;20051;-71
2022/05/21 01:07:15;;;;;;;0.00;0.00;;;10.50;99.90;;;;;;4870378;29;20457;-71
2022/05/21 01:09:46;;;;;;;0.13;0.13;;;10.60;99.90;;;;;;4886563;29;20096;-71
2022/05/21 01:12:11;;;;;;;0.00;0.00;;;10.50;99.90;;;;;;4887291;29;20056;-71
2022/05/21 01:14:37;;;;;;;0.00;0.00;;;10.70;99.90;;;;;;4890254;23;20075;-71
2022/05/21 01:17:03;;;;;;;0.10;0.10;;;10.50;99.90;;;;;;4926303;29;20677;-71
2022/05/21 01:19:29;;;;;;;0.30;0.20;;;10.40;99.90;;;;;;4923229;29;20047;-72
2022/05/21 01:21:55;;;;;;;0.00;0.00;;;10.40;99.90;;;;;;4907520;29;20048;-71
2022/05/21 01:24:21;;;;;;;0.00;0.00;;;10.50;99.90;;;;;;4924435;29;20082;-71
2022/05/21 01:26:47;;;;;;;0.20;0.15;;;10.60;99.90;;;;;;4923724;29;20051;-71
2022/05/21 01:29:22;;;;;;;0.00;0.00;;;10.40;99.90;;;;;;4924648;29;20107;-73
2022/05/21 01:31:53;;;;;;;0.20;0.10;;;10.40;99.90;;;;;;4924527;29;20126;-71
2022/05/21 01:34:19;;;;;;;0.43;0.30;;;10.60;99.90;;;;;;4906040;29;20059;-71
2022/05/21 01:36:46;;;;;;;0.00;0.00;;;10.60;99.90;;;;;;4924675;29;20054;-71
2022/05/21 01:39:12;;;;;;;0.60;0.52;;;10.50;99.90;;;;;;4924749;29;20079;-71
2022/05/21 01:41:44;;;;;;;0.20;0.13;;;10.50;99.90;;;;;;4923311;29;20469;-71
2022/05/21 01:46:55;;;;;;;0.00;0.00;;;10.60;99.90;;;;;;4914936;29;20152;-72
2022/05/21 01:49:20;;;;;;;0.00;0.00;;;10.60;99.90;;;;;;4903286;29;20134;-71
2022/05/21 01:51:46;;;;;;;0.00;0.00;;;10.70;99.90;;;;;;4905301;29;20048;-71
2022/05/21 01:54:12;;;;;;;0.00;0.00;;;10.70;99.90;;;;;;4905604;29;20036;-72
2022/05/21 01:56:38;;;;;;;0.00;0.00;;;10.70;99.90;;;;;;4904787;29;20044;-71
2022/05/21 01:59:04;;;;;;;0.10;0.10;;;10.90;99.90;;;;;;4907584;29;20404;-71
2022/05/21 02:01:30;;;;;;;0.00;0.00;;;10.90;99.90;;;;;;4908981;29;20487;-72
2022/05/21 02:03:56;;;;;;;0.10;0.10;;;10.80;99.90;;;;;;4908380;29;20131;-72
2022/05/21 02:06:21;;;;;;;0.00;0.00;;;10.80;99.90;;;;;;4907067;29;20205;-71
2022/05/21 02:08:47;;;;;;;0.03;0.03;;;11.00;99.90;;;;;;4909047;29;20048;-71
2022/05/21 02:11:13;;;;;;;0.22;0.17;;;11.00;99.90;;;;;;4909092;29;20186;-72
2022/05/21 02:13:38;;;;;;;0.25;0.15;;;10.90;99.90;;;;;;4907653;29;20235;-72
2022/05/21 02:16:04;;;;;;;0.00;0.00;;;11.00;99.90;;;;;;4908719;29;20048;-72
2022/05/21 02:18:31;;;;;;;0.00;0.00;;;11.00;99.90;;;;;;4891695;29;20060;-72
2022/05/21 02:20:56;;;;;;;0.00;0.00;;;11.00;99.90;;;;;;4907749;29;20103;-72
2022/05/21 02:23:23;;;;;;;0.85;0.35;;;11.10;99.90;;;;;;4908369;29;20052;-72
2022/05/21 02:25:49;;;;;;;0.10;0.10;;;11.20;99.90;;;;;;4908379;29;20424;-72
2022/05/21 02:28:15;;;;;;;0.40;0.40;;;11.10;99.90;;;;;;4891935;29;20052;-72
2022/05/21 02:30:42;;;;;;;0.77;0.75;;;11.20;99.90;;;;;;4908434;29;20041;-72
2022/05/21 02:33:08;;;;;;;0.20;0.15;;;11.30;99.90;;;;;;4908604;29;20079;-72
2022/05/21 02:35:34;;;;;;;0.00;0.00;;;11.20;99.90;;;;;;4907841;29;20667;-72
2022/05/21 02:40:45;;;;;;;0.10;0.10;;;11.20;99.90;;;;;;4891598;29;20063;-73
2022/05/21 02:43:10;;;;;;;0.00;0.00;;;11.30;99.90;;;;;;4908441;29;20044;-72
2022/05/21 02:45:36;;;;;;;0.10;0.10;;;11.40;99.90;;;;;;4911895;29;21005;-72
2022/05/21 02:48:01;;;;;;;0.15;0.15;;;11.40;99.90;;;;;;4914352;29;20052;-71
2022/05/21 02:50:33;;;;;;;0.57;0.57;;;11.30;99.90;;;;;;4907145;29;20391;-73
2022/05/21 02:53:05;;;;;;;0.10;0.10;;;11.40;99.90;;;;;;4890485;29;20079;-72
2022/05/21 02:55:31;;;;;;;0.17;0.17;;;11.40;99.90;;;;;;4891007;29;20052;-72
2022/05/21 02:57:57;;;;;;;0.22;0.22;;;11.40;99.90;;;;;;4908301;29;20054;-70
2022/05/21 03:00:30;;;;;;;0.00;0.00;;;11.60;99.90;;;;;;4907596;29;20632;-72
2022/05/21 03:02:56;;;;;;;0.55;0.40;;;11.50;99.90;;;;;;4908165;29;20127;-73
2022/05/21 03:05:23;;;;;;;0.88;0.88;;;11.50;99.90;;;;;;4907002;29;20123;-71
2022/05/21 03:07:50;;;;;;;0.45;0.20;;;11.60;99.90;;;;;;4907593;29;20048;-71
2022/05/21 03:10:22;;;;;;;0.40;0.40;;;11.60;99.90;;;;;;4907393;29;20464;-70
2022/05/21 03:12:52;;;;;;;0.00;0.00;;;11.70;99.90;;;;;;4907977;29;20102;-73
2022/05/21 03:15:19;;;;;;;0.03;0.03;;;11.70;99.90;;;;;;4906715;29;20055;-72
2022/05/21 03:17:46;;;;;;;0.00;0.00;;;11.70;99.90;;;;;;4907891;29;20487;-72
2022/05/21 03:20:13;;;;;;;0.10;0.08;;;11.50;99.90;;;;;;4890268;29;20060;-72
2022/05/21 03:22:41;;;;;;;0.10;0.10;;;11.70;99.90;;;;;;4906748;29;20136;-72
2022/05/21 03:25:07;;;;;;;0.10;0.10;;;11.70;99.90;;;;;;4907691;29;20063;-72
2022/05/21 03:27:33;;;;;;;0.30;0.25;;;11.70;99.90;;;;;;4907315;29;20495;-72
2022/05/21 03:29:59;;;;;;;0.20;0.20;;;11.60;99.90;;;;;;4907647;29;20083;-72
2022/05/21 03:32:25;;;;;;;1.27;0.90;;;11.70;99.90;;;;;;4905861;29;20056;-72
2022/05/21 03:34:50;;;;;;;0.00;0.00;;;11.80;99.90;;;;;;4889635;29;20052;-72
2022/05/21 03:37:16;;;;;;;0.10;0.10;;;11.90;99.90;;;;;;4906758;29;20048;-72
2022/05/21 03:39:42;;;;;;;0.30;0.30;;;12.10;99.90;;;;;;4906756;29;20048;-71
2022/05/21 03:42:09;;;;;;;0.10;0.10;;;11.80;99.90;;;;;;4907753;29;20044;-72
2022/05/21 03:44:35;;;;;;;0.15;0.08;;;12.00;99.90;;;;;;4907819;29;20070;-72
2022/05/21 03:47:00;;;;;;;0.40;0.22;;;12.30;99.90;;;;;;4916751;29;20131;-71
2022/05/21 03:49:26;;;;;;;0.15;0.10;;;12.00;99.90;;;;;;4905792;29;20460;-71
2022/05/21 03:51:52;;;;;;;0.45;0.30;;;12.10;99.90;;;;;;4906923;29;20047;-71
2022/05/21 03:54:18;;;;;;;0.00;0.00;;;11.90;99.90;;;;;;4906929;29;20055;-71
2022/05/21 03:56:44;;;;;;;0.20;0.10;;;11.90;99.90;;;;;;4906818;29;20071;-71
2022/05/21 03:59:09;;;;;;;0.47;0.30;;;12.00;99.90;;;;;;4889987;29;20146;-70
2022/05/21 04:01:35;;;;;;;0.00;0.00;;;11.90;99.90;;;;;;4889821;29;20246;-70
2022/05/21 04:04:01;;;;;;;0.13;0.13;;;12.00;99.90;;;;;;4904927;29;20419;-71
2022/05/21 04:06:27;;;;;;;0.10;0.10;;;12.00;99.90;;;;;;4906351;29;20083;-71
2022/05/21 04:08:52;;;;;;;0.00;0.00;;;12.20;99.90;;;;;;4906697;29;20496;-70
2022/05/21 04:11:18;;;;;;;0.35;0.35;;;12.10;99.90;;;;;;4905257;29;20048;-70
2022/05/21 04:13:44;;;;;;;0.57;0.30;;;12.10;99.90;;;;;;4905980;29;20155;-71
2022/05/21 04:16:10;;;;;;;0.50;0.22;;;12.20;99.90;;;;;;4906505;29;20104;-70
2022/05/21 04:18:35;;;;;;;0.00;0.00;;;12.10;99.90;;;;;;4906731;29;20107;-70
2022/05/21 04:21:01;;;;;;;0.20;0.20;;;12.10;99.90;;;;;;4888540;29;20564;-70
2022/05/21 04:23:26;;;;;;;0.00;0.00;;;12.20;99.90;;;;;;4905007;29;20044;-71
2022/05/21 04:25:52;;;;;;;0.08;0.08;;;12.30;99.90;;;;;;4906320;29;20036;-70
2022/05/21 04:28:18;;;;;;;0.45;0.17;;;12.20;99.90;;;;;;4906647;29;20608;-71
2022/05/21 04:30:44;;;;;;;0.00;0.00;;;12.20;99.90;;;;;;4906177;29;20502;-70
2022/05/21 04:33:09;;;;;;;0.20;0.20;;;12.20;99.90;;;;;;4906307;29;20055;-71
2022/05/21 04:38:19;;;;;;;0.10;0.10;;;12.40;99.90;;;;;;4905402;29;20051;-71
2022/05/21 04:40:45;;;;;;;0.10;0.10;;;12.50;99.90;;;;;;4906370;29;20048;-70
2022/05/21 04:43:11;;;;;;;0.38;0.32;;;12.40;99.90;;;;;;4906523;29;20123;-70
2022/05/21 04:45:36;;;;;;;0.00;0.00;;;12.40;99.90;;;;;;4893712;29;20060;-70
2022/05/21 04:48:03;;;;;;;0.00;0.00;;;12.60;99.90;;;;;;4911323;29;20040;-72
2022/05/21 04:50:29;;;;;;;0.10;0.10;;;12.60;99.90;;;;;;4905051;29;20059;-72
2022/05/21 04:52:55;;;;;;;0.32;0.10;;;12.60;99.90;;;;;;4905950;29;20040;-72
2022/05/21 04:55:20;;;;;;;0.00;0.00;;;12.60;99.90;;;;;;4905477;29;20040;-72
2022/05/21 04:57:46;;;;;;;0.00;0.00;;;12.60;99.90;;;;;;4905865;29;20086;-73
2022/05/21 05:00:12;;;;;;;0.00;0.00;;;12.60;99.90;;;;;;4906350;29;20036;-73
2022/05/21 05:02:38;;;;;;;0.10;0.10;;;12.70;99.90;;;;;;4905554;29;20094;-72
2022/05/21 05:05:05;;;;;;;0.00;0.00;;;12.70;99.90;;;;;;4905078;29;20040;-72
2022/05/21 05:07:31;;;;;;;0.00;0.00;;;12.70;99.90;;;;;;4905779;29;20055;-72
2022/05/21 05:09:56;;;;;;;0.05;0.05;;;12.80;99.90;;;;;;4905785;29;20037;-71
2022/05/21 05:12:22;;;;;;;0.00;0.00;;;12.90;99.90;;;;;;4904817;29;20738;-71
2022/05/21 05:14:47;;;;;;;0.08;0.08;;;13.00;99.90;;;;;;4905055;29;20415;-70
2022/05/21 05:17:13;;;;;;;0.00;0.00;;;13.00;99.90;;;;;;4906418;29;20505;-70
2022/05/21 05:19:40;;;;;;;0.00;0.00;;;13.00;99.90;;;;;;4905162;29;20047;-70
2022/05/21 05:22:09;;;;;;;0.00;0.00;;;13.00;99.90;;;;;;4905189;29;20227;-71
2022/05/21 05:24:35;;;;;;;0.00;0.00;;;13.10;99.90;;;;;;4905418;29;20163;-69
2022/05/21 05:27:01;;;;;;;0.05;0.05;;;13.10;99.90;;;;;;4888228;29;20059;-70
2022/05/21 05:29:28;;;;;;;0.00;0.00;;;13.10;99.90;;;;;;4904655;29;20052;-70
2022/05/21 05:31:54;;;;;;;0.00;0.00;;;13.10;99.90;;;;;;4888134;29;20104;-70
2022/05/21 05:34:20;;;;;;;0.00;0.00;;;13.10;99.90;;;;;;4904094;29;20075;-70
2022/05/21 05:36:47;;;;;;;0.00;0.00;;;13.40;99.90;;;;;;4904976;29;20064;-70
2022/05/21 05:39:13;;;;;;;0.00;0.00;;;13.50;99.90;;;;;;4905642;29;20503;-70
2022/05/21 05:41:39;;;;;;;0.00;0.00;;;13.60;99.90;;;;;;4904930;29;20044;-70
2022/05/21 05:44:06;;;;;;;0.00;0.00;;;13.50;99.90;;;;;;4905143;29;20052;-69
2022/05/21 05:46:32;;;;;;;0.00;0.00;;;13.60;99.90;;;;;;4915010;29;20048;-70
2022/05/21 05:48:57;;;;;;;0.00;0.00;;;13.70;99.90;;;;;;4904787;29;20060;-70
2022/05/21 05:51:23;;;;;;;0.00;0.00;;;13.60;99.90;;;;;;4905079;29;20044;-70
2022/05/21 05:53:50;;;;;;;0.00;0.00;;;13.50;99.90;;;;;;4903143;29;20158;-70
2022/05/21 05:56:16;;;;;;;0.00;0.00;;;13.40;99.90;;;;;;4904758;29;20154;-70
2022/05/21 06:01:26;;;;;;;0.00;0.00;;;13.40;99.90;;;;;;4904274;29;20415;-70
2022/05/21 06:03:53;;;;;;;0.00;0.00;;;13.30;99.90;;;;;;4904184;29;20070;-70
2022/05/21 06:06:19;;;;;;;0.10;0.00;;;13.40;99.90;;;;;;4904800;29;20044;-70
2022/05/21 06:08:45;;;;;;;0.00;0.00;;;13.30;99.90;;;;;;4904659;29;20547;-70
2022/05/21 06:11:12;;;;;;;0.00;0.00;;;13.60;99.90;;;;;;4905185;29;20050;-70
2022/05/21 06:13:38;;;;;;;0.00;0.00;;;14.00;99.90;;;;;;4904081;29;20798;-70
2022/05/21 06:16:04;;;;;;;0.10;0.10;;;14.20;99.90;;;;;;4904854;29;20062;-70
2022/05/21 06:18:30;;;;;;;0.00;0.00;;;14.30;99.90;;;;;;4903600;29;20066;-69
2022/05/21 06:20:59;;;;;;;0.00;0.00;;;14.20;99.90;;;;;;4904929;29;20052;-70
2022/05/21 06:23:25;;;;;;;0.00;0.00;;;14.10;99.90;;;;;;4904669;29;20438;-70
2022/05/21 06:25:51;;;;;;;0.00;0.00;;;14.10;99.90;;;;;;4887139;29;20131;-70
2022/05/21 06:28:17;;;;;;;0.00;0.00;;;14.10;99.90;;;;;;4887611;29;20432;-70
2022/05/21 06:30:44;;;;;;;0.00;0.00;;;14.10;99.90;;;;;;4905079;29;20115;-70
2022/05/21 06:33:25;;;;;;;0.35;0.35;;;14.10;99.90;;;;;;4904631;29;20361;-70
2022/05/21 06:36:04;;;;;;;0.00;0.00;;;14.30;99.90;;;;;;4887638;29;20055;-70
2022/05/21 06:38:29;;;;;;;0.10;0.10;;;14.40;99.90;;;;;;4904072;29;20062;-70
2022/05/21 06:40:55;;;;;;;0.00;0.00;;;14.20;99.90;;;;;;4904652;29;20044;-70
2022/05/21 06:43:22;;;;;;;0.00;0.00;;;14.20;99.90;;;;;;4904357;29;20554;-70
2022/05/21 06:45:48;;;;;;;0.00;0.00;;;14.10;99.90;;;;;;4912683;29;20062;-69
2022/05/21 06:48:13;;;;;;;0.00;0.00;;;14.50;99.90;;;;;;4912560;29;20044;-70
2022/05/21 06:50:39;;;;;;;0.00;0.00;;;14.70;99.90;;;;;;4890580;29;20082;-70
2022/05/21 06:53:06;;;;;;;0.00;0.00;;;14.90;99.90;;;;;;4908181;29;20047;-69
2022/05/21 06:55:32;;;;;;;0.10;0.10;;;15.00;99.90;;;;;;4907358;29;20143;-70
2022/05/21 06:57:58;;;;;;;0.10;0.10;;;15.00;99.90;;;;;;4907983;29;20041;-70
2022/05/21 07:00:24;;;;;;;0.00;0.00;;;14.70;99.90;;;;;;4907986;29;20036;-70
2022/05/21 07:02:52;;;;;;;0.00;0.00;;;14.70;99.90;;;;;;4907680;29;20048;-69
2022/05/21 07:08:05;;;;;;;0.00;0.00;;;15.30;99.90;;;;;;4907936;29;20052;-70
2022/05/21 07:10:31;;;;;;;0.00;0.00;;;15.50;99.90;;;;;;4907235;29;20076;-70
2022/05/21 07:12:58;;;;;;;0.00;0.00;;;15.40;99.90;;;;;;4890499;29;20119;-71
2022/05/21 07:15:23;;;;;;;0.00;0.00;;;15.10;99.90;;;;;;4907143;29;20055;-68
2022/05/21 07:17:49;;;;;;;0.05;0.03;;;15.10;99.90;;;;;;4907837;29;20058;-68
2022/05/21 07:20:19;;;;;;;0.00;0.00;;;14.90;99.90;;;;;;4906900;29;20048;-69
2022/05/21 07:22:47;;;;;;;0.00;0.00;;;14.60;99.90;;;;;;4907824;29;20099;-67
2022/05/21 07:25:16;;;;;;;0.00;0.00;;;14.50;99.90;;;;;;4907922;29;20438;-69
2022/05/21 07:27:42;;;;;;;0.20;0.10;;;14.60;99.90;;;;;;4907242;29;20051;-68
2022/05/21 07:30:08;;;;;;;0.00;0.00;;;15.30;99.90;;;;;;4907430;29;20411;-69
2022/05/21 07:32:35;;;;;;;0.00;0.00;;;15.90;99.90;;;;;;4905958;29;20583;-69
2022/05/21 07:35:11;;;;;;;0.00;0.00;;;15.60;99.90;;;;;;4906166;29;20862;-69
2022/05/21 07:37:36;;;;;;;0.00;0.00;;;15.50;99.90;;;;;;4890154;29;20056;-69
2022/05/21 07:40:03;;;;;;;0.00;0.00;;;15.70;99.90;;;;;;4905883;29;20064;-69
2022/05/21 07:42:29;;;;;;;0.00;0.00;;;16.10;99.90;;;;;;4905943;29;20044;-70
2022/05/21 07:44:57;;;;;;;0.00;0.00;;;16.10;99.90;;;;;;4909092;29;20067;-70
2022/05/21 07:47:24;;;;;;;0.00;0.00;;;15.80;99.90;;;;;;4917432;29;20092;-69
2022/05/21 07:49:57;;;;;;;0.00;0.00;;;15.50;99.90;;;;;;4925224;29;20063;-69
2022/05/21 07:52:24;;;;;;;0.00;0.00;;;15.30;99.90;;;;;;4925859;29;20040;-69
2022/05/21 07:54:50;;;;;;;0.40;0.28;;;15.00;99.90;;;;;;4925961;29;20044;-69
2022/05/21 07:57:16;;;;;;;0.00;0.00;;;14.90;99.90;;;;;;4925333;29;20776;-69
2022/05/21 07:59:41;;;;;;;0.00;0.00;;;15.10;99.90;;;;;;4925535;29;20043;-68
2022/05/21 08:02:12;;;;;;;0.00;0.00;;;15.70;99.90;;;;;;4926016;29;20044;-67
2022/05/21 08:04:38;;;;;;;0.08;0.08;;;16.00;99.90;;;;;;4924727;29;20387;-68
2022/05/21 08:07:04;;;;;;;0.10;0.10;;;16.30;99.90;;;;;;4925127;29;20047;-68
2022/05/21 08:09:30;;;;;;;0.85;0.20;;;16.50;99.90;;;;;;4925634;29;20107;-68
2022/05/21 08:11:55;;;;;;;0.00;0.00;;;16.10;99.90;;;;;;4925322;29;20091;-68
2022/05/21 08:14:21;;;;;;;0.00;0.00;;;15.90;99.90;;;;;;4924224;29;20168;-68
2022/05/21 08:16:49;;;;;;;0.00;0.00;;;15.90;99.90;;;;;;4925418;29;20079;-68
2022/05/21 08:19:15;;;;;;;0.00;0.00;;;15.80;99.90;;;;;;4925150;29;20050;-68
2022/05/21 08:21:41;;;;;;;0.00;0.00;;;15.70;99.90;;;;;;4925795;29;20056;-68
2022/05/21 08:26:58;;;;;;;0.00;0.00;;;15.70;99.90;;;;;;4910928;29;20595;-67
2022/05/21 08:29:32;;;;;;;0.00;0.00;;;16.00;99.90;;;;;;4924665;29;20047;-67
2022/05/21 08:32:00;;;;;;;0.00;0.00;;;16.40;99.90;;;;;;4925296;29;20043;-72
2022/05/21 08:34:27;;;;;;;0.00;0.00;;;16.30;99.90;;;;;;4924389;29;20052;-68
2022/05/21 08:36:53;;;;;;;0.00;0.00;;;16.00;99.90;;;;;;4924942;29;20055;-68
2022/05/21 08:39:20;;;;;;;0.10;0.10;;;15.90;99.90;;;;;;4925219;29;20051;-68
2022/05/21 08:41:56;;;;;;;0.00;0.00;;;15.70;99.90;;;;;;4925462;29;20451;-68
2022/05/21 08:44:57;;;;;;;0.00;0.00;;;15.60;99.90;;;;;;4923617;29;20508;-69
2022/05/21 08:47:32;;;;;;;0.00;0.00;;;16.00;99.90;;;;;;4893239;29;20163;-72
2022/05/21 08:50:05;;;;;;;0.00;0.00;;;16.10;99.90;;;;;;4873849;29;20043;-67
2022/05/21 08:52:46;;;;;;;0.00;0.00;;;16.10;99.90;;;;;;4904632;29;20052;-67
2022/05/21 08:55:24;;;;;;;0.00;0.00;;;15.90;99.90;;;;;;4906626;29;20056;-68
2022/05/21 08:57:56;;;;;;;0.00;0.00;;;16.30;99.90;;;;;;4905695;29;20058;-67
2022/05/21 09:00:36;;;;;;;0.13;0.08;;;16.70;99.90;;;;;;4905193;29;20040;-67
2022/05/21 09:03:09;;;;;;;0.00;0.00;;;17.00;99.90;;;;;;4904872;29;20147;-69
2022/05/21 09:05:37;;;;;;;0.17;0.17;;;17.10;99.90;;;;;;4905110;29;20126;-68
2022/05/21 09:08:21;;;;;;;0.10;0.10;;;17.00;99.90;;;;;;4905309;29;20082;-68
2022/05/21 09:11:11;;;;;;;0.00;0.00;;;17.10;99.90;;;;;;4905168;29;20048;-68
2022/05/21 09:13:59;;;;;;;0.00;0.00;;;16.90;99.90;;;;;;4905241;29;20060;-68
2022/05/21 09:19:09;;;;;;;0.10;0.00;;;17.30;99.90;;;;;;4904819;29;20055;-69
2022/05/21 09:21:45;;;;;;;0.00;0.00;;;17.60;99.90;;;;;;4904464;29;20048;-68
2022/05/21 09:24:33;;;;;;;0.00;0.00;;;17.80;99.90;;;;;;4905667;29;20048;-68
2022/05/21 09:26:59;;;;;;;0.05;0.05;;;18.00;99.90;;;;;;4905002;29;20127;-68
2022/05/21 09:29:31;;;;;;;0.00;0.00;;;18.30;99.90;;;;;;4888294;29;20130;-68
2022/05/21 09:31:57;;;;;;;0.00;0.00;;;18.00;99.90;;;;;;4905290;29;20087;-68
2022/05/21 09:34:26;;;;;;;0.00;0.00;;;17.70;99.90;;;;;;4903562;29;20062;-68
2022/05/21 09:36:52;;;;;;;0.00;0.00;;;17.30;99.90;;;;;;4905373;29;20688;-68
2022/05/21 09:39:34;;;;;;;0.00;0.00;;;17.20;99.90;;;;;;4904946;29;20054;-68
2022/05/21 09:45:25;;;;;;;0.00;0.00;;;17.00;99.90;;;;;;4901463;29;20059;-68
2022/05/21 09:48:14;;;;;;;0.03;0.03;;;17.00;99.90;;;;;;4911258;29;20056;-68
2022/05/21 09:50:54;;;;;;;0.00;0.00;;;16.80;99.90;;;;;;4905277;29;20055;-68
2022/05/21 09:53:36;;;;;;;0.00;0.00;;;17.10;99.90;;;;;;4904689;29;20051;-68
2022/05/21 09:56:17;;;;;;;0.00;0.00;;;17.30;99.90;;;;;;4905265;29;20103;-64
2022/05/21 09:58:43;;;;;;;0.00;0.00;;;17.50;99.90;;;;;;4888091;29;20076;-64
2022/05/21 10:01:13;;;;;;;0.00;0.00;;;17.30;99.90;;;;;;4905092;29;20123;-68
2022/05/21 10:03:45;;;;;;;0.10;0.10;;;17.40;99.90;;;;;;4902771;29;20054;-64
2022/05/21 10:06:19;;;;;;;0.00;0.00;;;17.40;99.90;;;;;;4904424;29;20052;-69
2022/05/21 10:11:56;;;;;;;0.00;0.00;;;16.80;99.90;;;;;;4904393;29;20068;-68
2022/05/21 10:14:34;;;;;;;0.00;0.00;;;16.60;99.90;;;;;;4903628;29;20059;-68
2022/05/21 10:17:05;;;;;;;0.00;0.00;;;16.50;99.90;;;;;;4904307;29;20044;-68
2022/05/21 10:19:44;;;;;;;0.00;0.00;;;16.50;99.90;;;;;;4886032;29;20047;-68
2022/05/21 10:22:34;;;;;;;0.10;0.00;;;16.30;99.90;;;;;;4908178;29;20051;-68
2022/05/21 10:25:03;;;;;;;0.00;0.00;;;16.20;99.90;;;;;;4908582;29;20040;-68
2022/05/21 10:27:47;;;;;;;0.00;0.00;;;16.30;99.90;;;;;;4907341;29;20052;-68
2022/05/21 10:30:22;;;;;;;0.00;0.00;;;16.30;99.90;;;;;;4908583;29;20104;-68
2022/05/21 10:33:29;;;;;;;0.00;0.00;;;16.60;99.90;;;;;;4905796;29;20048;-68
2022/05/21 10:36:03;;;;;;;0.00;0.00;;;16.80;99.90;;;;;;4907998;29;20051;-68
2022/05/21 10:38:50;;;;;;;0.00;0.00;;;16.50;99.90;;;;;;4908056;29;20107;-68
2022/05/21 10:41:48;;;;;;;0.00;0.00;;;16.60;99.90;;;;;;4907511;29;20056;-68
2022/05/21 10:44:22;;;;;;;0.00;0.00;;;16.80;99.90;;;;;;4908324;29;20055;-67
2022/05/21 10:46:53;;;;;;;;;;;16.70;99.90;;;;;;4915354;29;20051;-68
2022/05/21 10:49:31;;;;;;;0.03;0.00;;;16.70;99.90;;;;;;4925863;29;19984;-68
2022/05/21 10:52:01;;;;;;;0.00;0.00;;;17.10;99.90;;;;;;4925948;29;20082;-68
2022/05/21 10:54:54;;;;;;;0.00;0.00;;;17.50;99.90;;;;;;4909014;29;20039;-68
2022/05/21 10:57:38;;;;;;;0.00;0.00;;;17.90;99.90;;;;;;4925789;29;20055;-68
2022/05/21 11:00:29;;;;;;;0.00;0.00;;;17.90;99.90;;;;;;4909627;29;20434;-69
2022/05/21 11:03:24;;;;;;;0.00;0.00;;;17.90;99.90;;;;;;4889938;29;20059;-70
2022/05/21 11:06:14;;;;;;;0.00;0.00;;;17.40;99.90;;;;;;4908804;29;20139;-70
2022/05/21 11:08:48;;;;;;;0.00;0.00;;;17.40;99.90;;;;;;4926300;29;20051;-67
2022/05/21 11:12:08;;;;;;;0.00;0.00;;;17.70;99.90;;;;;;4926479;29;20052;-69
2022/05/21 11:14:34;;;;;;;0.00;0.00;;;17.80;99.90;;;;;;4850635;29;20113;-69
2022/05/21 11:17:30;;;;;;;0.00;0.00;;;18.10;99.90;;;;;;4921913;29;20044;-68
2022/05/21 11:20:05;;;;;;;0.17;0.17;;;18.30;99.90;;;;;;4908378;29;20138;-68
2022/05/21 11:22:57;;;;;;;0.00;0.00;;;18.30;99.90;;;;;;4908807;29;20083;-68
2022/05/21 11:25:28;;;;;;;0.00;0.00;;;17.90;99.90;;;;;;4925945;29;20395;-68
2022/05/21 11:28:06;;;;;;;0.00;0.00;;;17.60;99.90;;;;;;4926236;29;20455;-68
2022/05/21 11:30:31;;;;;;;0.00;0.00;;;17.60;99.90;;;;;;4908507;29;20151;-68
2022/05/21 11:39:08;;;;;;;0.00;0.00;;;17.60;99.90;;;;;;4866255;29;20657;-68
2022/05/21 11:42:00;;;;;;;0.00;0.00;;;17.90;99.90;;;;;;4866513;29;20057;-68
2022/05/21 11:45:03;;;;;;;0.00;0.00;;;18.10;99.90;;;;;;4904339;29;20058;-68
2022/05/21 11:47:35;;;;;;;0.00;0.00;;;18.80;99.90;;;;;;4914827;29;20234;-68
2022/05/21 11:50:08;;;;;;;0.00;0.00;;;19.20;99.90;;;;;;4907155;29;20292;-68
2022/05/21 11:52:36;;;;;;;0.00;0.00;;;18.90;99.90;;;;;;4906125;29;20052;-68
2022/05/21 11:55:11;;;;;;;0.00;0.00;;;18.70;99.90;;;;;;4890057;29;20523;-68
2022/05/21 11:57:36;;;;;;;;;;;18.70;99.90;;;;;;4906002;29;20056;-68
2022/05/21 12:00:09;;;;;;;0.00;0.00;;;18.70;99.90;;;;;;4905993;29;19930;-68
2022/05/21 12:02:38;;;;;;;0.00;0.00;;;19.00;99.90;;;;;;4888584;29;20092;-68
2022/05/21 12:05:11;;;;;;;0.00;0.00;;;19.20;99.90;;;;;;4906536;29;20044;-68
2022/05/21 12:07:46;;;;;;;0.00;0.00;;;19.50;99.90;;;;;;4905513;29;20063;-67
2022/05/21 12:10:49;;;;;;;0.00;0.00;;;19.50;99.90;;;;;;4907398;29;20052;-68
2022/05/21 12:13:21;;;;;;;0.00;0.00;;;19.90;99.90;;;;;;4845354;29;20123;-68
2022/05/21 12:15:50;;;;;;;0.00;0.00;;;19.90;99.90;;;;;;4906624;29;20495;-70
2022/05/21 12:18:40;;;;;;;0.10;0.00;;;19.70;99.90;;;;;;4903806;29;20044;-68
2022/05/21 12:21:11;;;;;;;0.00;0.00;;;19.40;99.90;;;;;;4906431;29;20056;-68
2022/05/21 12:23:38;;;;;;;0.00;0.00;;;19.50;99.90;;;;;;4889202;29;20444;-68
2022/05/21 12:26:06;;;;;;;0.00;0.00;;;19.30;99.90;;;;;;4906059;29;20059;-68
2022/05/21 12:28:47;;;;;;;0.10;0.10;;;18.70;99.90;;;;;;4905849;29;20087;-68
2022/05/21 12:31:21;;;;;;;0.00;0.00;;;18.40;99.90;;;;;;4906683;29;20056;-67
2022/05/21 12:33:57;;;;;;;0.00;0.00;;;18.90;99.90;;;;;;4905179;29;20512;-68
2022/05/21 12:37:01;;;;;;;0.00;0.00;;;19.00;99.90;;;;;;4905795;29;20311;-68
2022/05/21 12:39:50;;;;;;;0.00;0.00;;;19.00;99.90;;;;;;4905172;29;20419;-68
2022/05/21 12:42:21;;;;;;;0.00;0.00;;;19.10;99.90;;;;;;4905389;29;20051;-68
2022/05/21 12:44:47;;;;;;;0.00;0.00;;;19.10;99.90;;;;;;4890690;29;20399;-68
2022/05/21 12:47:33;;;;;;;0.00;0.00;;;18.90;99.90;;;;;;4897064;29;20044;-68
2022/05/21 12:50:03;;;;;;;0.00;0.00;;;18.60;99.90;;;;;;4887449;29;20527;-67
2022/05/21 12:52:41;;;;;;;0.00;0.00;;;18.20;99.90;;;;;;4888019;29;20439;-68
2022/05/21 12:55:29;;;;;;;0.00;0.00;;;18.00;99.90;;;;;;4905463;29;20063;-68
2022/05/21 12:57:58;;;;;;;0.00;0.00;;;18.00;99.90;;;;;;4888487;29;20127;-68
2022/05/21 13:00:29;;;;;;;0.00;0.00;;;17.90;99.90;;;;;;4905333;29;20044;-68
2022/05/21 13:02:55;;;;;;;0.00;0.00;;;17.80;99.90;;;;;;4904115;29;20040;-68
2022/05/21 13:05:28;;;;;;;0.00;0.00;;;17.60;99.90;;;;;;4903618;29;20111;-68
2022/05/21 13:08:01;;;;;;;0.00;0.00;;;17.30;99.90;;;;;;4905505;29;20111;-67
2022/05/21 13:10:29;;;;;;;0.00;0.00;;;17.40;99.90;;;;;;4905135;29;20119;-68
2022/05/21 13:13:01;;;;;;;0.00;0.00;;;17.30;99.90;;;;;;4904858;29;20060;-68
2022/05/21 13:15:39;;;;;;;0.00;0.00;;;17.30;99.90;;;;;;4889846;29;20056;-68
2022/05/21 13:18:32;;;;;;;2.50;0.38;;;17.40;99.90;;;;;;4891985;29;20044;-68
2022/05/21 13:20:57;;;;;;;0.00;0.00;;;17.30;99.90;;;;;;4890288;29;20147;-68
2022/05/21 13:23:32;;;;;;;0.10;0.10;;;17.80;99.90;;;;;;4892505;29;20076;-68
2022/05/21 13:25:57;;;;;;;0.00;0.00;;;18.00;99.90;;;;;;4892102;29;20049;-68
2022/05/21 13:28:25;;;;;;;0.00;0.00;;;17.90;99.90;;;;;;4891749;29;20515;-68
2022/05/21 13:30:52;;;;;;;0.00;0.00;;;18.10;99.90;;;;;;4890072;29;20112;-68
2022/05/21 13:33:26;;;;;;;0.00;0.00;;;18.20;99.90;;;;;;4890474;29;20044;-68
2022/05/21 13:35:56;;;;;;;0.00;0.00;;;18.20;99.90;;;;;;4890486;29;20255;-68
2022/05/21 13:38:31;;;;;;;0.00;0.00;;;18.20;99.90;;;;;;4892010;29;20051;-68